createdAt,value
2018-05-27T00:00:57.756Z,100108.22
2018-05-27T00:02:32.845Z,100107.89
2018-05-27T00:04:08.698Z,100106.81
2018-05-27T00:05:44.595Z,100116.52
2018-05-27T00:07:19.670Z,100110.51
2018-05-27T00:08:55.507Z,100103.17
2018-05-27T00:10:30.630Z,100105.02
2018-05-27T00:12:05.712Z,100106.30
2018-05-27T00:13:40.781Z,100107.23
2018-05-27T00:15:15.901Z,100106.61
2018-05-27T00:16:50.966Z,100100.80
2018-05-27T00:18:26.828Z,100107.08
2018-05-27T00:20:01.922Z,100104.56
2018-05-27T00:21:37.033Z,100100.80
2018-05-27T00:23:12.114Z,100103.64
2018-05-27T00:24:47.177Z,100102.14
2018-05-27T00:26:22.313Z,100098.00
2018-05-27T00:27:57.386Z,100099.15
2018-05-27T00:29:33.234Z,100097.05
2018-05-27T00:31:09.063Z,100098.97
2018-05-27T00:32:44.164Z,100102.17
2018-05-27T00:34:19.245Z,100093.18
2018-05-27T00:35:54.337Z,100098.20
2018-05-27T00:37:29.428Z,100092.80
2018-05-27T00:39:07.147Z,100089.69
2018-05-27T00:40:42.233Z,100083.58
2018-05-27T00:42:17.326Z,100083.34
2018-05-27T00:43:52.440Z,100079.19
2018-05-27T00:45:27.503Z,100083.61
2018-05-27T00:47:02.633Z,100078.25
2018-05-27T00:48:38.519Z,100077.19
2018-05-27T00:50:13.593Z,100075.69
2018-05-27T00:51:48.670Z,100072.30
2018-05-27T00:53:41.396Z,100069.77
2018-05-27T00:55:16.473Z,100074.80
2018-05-27T00:56:51.569Z,100069.16
2018-05-27T00:58:26.636Z,100074.25
2018-05-27T01:00:01.733Z,100068.17
2018-05-27T01:01:36.813Z,100065.67
2018-05-27T01:03:11.900Z,100065.11
2018-05-27T01:04:47.726Z,100065.27
2018-05-27T01:06:22.856Z,100059.32
2018-05-27T01:07:57.964Z,100061.19
2018-05-27T01:09:33.090Z,100059.36
2018-05-27T01:11:08.933Z,100063.95
2018-05-27T01:12:44.814Z,100059.92
2018-05-27T01:14:19.941Z,100061.02
2018-05-27T01:15:55.019Z,100060.13
2018-05-27T01:17:30.098Z,100057.31
2018-05-27T01:19:05.212Z,100057.91
2018-05-27T01:20:40.300Z,100057.01
2018-05-27T01:22:15.418Z,100059.91
2018-05-27T01:23:50.502Z,100057.77
2018-05-27T01:25:25.587Z,100051.05
2018-05-27T01:27:00.665Z,100049.50
2018-05-27T01:28:35.773Z,100044.66
2018-05-27T01:30:10.866Z,100045.72
2018-05-27T01:31:45.934Z,100040.81
2018-05-27T01:33:21.016Z,100042.13
2018-05-27T01:34:56.131Z,100045.42
2018-05-27T01:36:31.211Z,100036.58
2018-05-27T01:38:07.045Z,100038.05
2018-05-27T01:39:42.266Z,100031.83
2018-05-27T01:41:17.387Z,100032.33
2018-05-27T01:42:52.466Z,100035.08
2018-05-27T01:44:27.530Z,100031.55
2018-05-27T01:46:02.651Z,100030.13
2018-05-27T01:47:37.736Z,100032.53
2018-05-27T01:49:13.601Z,100028.94
2018-05-27T01:50:48.699Z,100037.69
2018-05-27T01:52:23.779Z,100033.02
2018-05-27T01:53:58.894Z,100027.35
2018-05-27T01:55:33.977Z,100030.67
2018-05-27T01:57:09.042Z,100030.77
2018-05-27T01:58:44.577Z,100027.53
2018-05-27T02:00:20.461Z,100023.59
2018-05-27T02:01:55.562Z,100030.17
2018-05-27T02:03:30.650Z,100019.91
2018-05-27T02:05:05.745Z,100016.74
2018-05-27T02:06:41.623Z,100020.91
2018-05-27T02:08:16.695Z,100026.38
2018-05-27T02:09:51.762Z,100019.48
2018-05-27T02:11:26.892Z,100026.95
2018-05-27T02:13:02.003Z,100024.03
2018-05-27T02:14:37.112Z,100018.31
2018-05-27T02:16:12.206Z,100015.98
2018-05-27T02:17:47.290Z,100017.59
2018-05-27T02:19:22.386Z,100017.03
2018-05-27T02:20:57.576Z,100014.78
2018-05-27T02:22:32.645Z,100014.02
2018-05-27T02:24:08.490Z,100011.73
2018-05-27T02:25:43.623Z,100018.24
2018-05-27T02:27:19.510Z,100006.95
2018-05-27T02:28:54.642Z,100004.04
2018-05-27T02:30:29.736Z,100007.30
2018-05-27T02:32:04.811Z,100008.55
2018-05-27T02:33:39.905Z,100006.62
2018-05-27T02:35:15.005Z,100016.45
2018-05-27T02:36:50.851Z,100018.77
2018-05-27T02:38:26.706Z,100012.83
2018-05-27T02:40:02.560Z,100009.13
2018-05-27T02:41:38.448Z,100010.20
2018-05-27T02:43:13.538Z,100012.67
2018-05-27T02:44:48.631Z,100012.36
2018-05-27T02:46:23.765Z,100012.51
2018-05-27T02:47:58.851Z,100006.97
2018-05-27T02:49:33.910Z,100010.67
2018-05-27T02:51:09.007Z,100010.70
2018-05-27T02:52:44.121Z,100007.71
2018-05-27T02:54:19.232Z,100009.12
2018-05-27T02:55:55.083Z,100008.24
2018-05-27T02:57:30.977Z,100007.56
2018-05-27T02:59:06.064Z,100005.48
2018-05-27T03:00:41.172Z,100012.18
2018-05-27T03:02:16.263Z,100008.77
2018-05-27T03:03:51.377Z,100009.13
2018-05-27T03:05:26.449Z,100015.80
2018-05-27T03:07:01.551Z,100011.48
2018-05-27T03:08:36.651Z,100010.41
2018-05-27T03:10:11.737Z,100014.73
2018-05-27T03:11:46.836Z,100012.23
2018-05-27T03:13:21.959Z,100013.14
2018-05-27T03:14:57.062Z,100011.20
2018-05-27T03:16:32.149Z,100003.35
2018-05-27T03:18:07.215Z,100001.53
2018-05-27T03:19:42.327Z,100002.16
2018-05-27T03:21:18.176Z,100003.91
2018-05-27T03:22:53.245Z,100004.56
2018-05-27T03:24:28.355Z,99997.89
2018-05-27T03:26:03.429Z,99992.75
2018-05-27T03:27:38.515Z,99995.53
2018-05-27T03:29:13.612Z,99990.14
2018-05-27T03:30:48.689Z,99989.98
2018-05-27T03:32:23.761Z,99982.88
2018-05-27T03:33:58.862Z,99983.68
2018-05-27T03:35:33.972Z,99987.17
2018-05-27T03:37:09.023Z,99980.64
2018-05-27T03:38:44.125Z,99986.37
2018-05-27T03:40:19.208Z,99981.17
2018-05-27T03:41:54.306Z,99986.67
2018-05-27T03:43:29.379Z,99985.48
2018-05-27T03:45:05.218Z,99985.70
2018-05-27T03:46:40.329Z,99987.98
2018-05-27T03:48:15.507Z,99989.70
2018-05-27T03:49:50.590Z,99982.98
2018-05-27T03:51:25.686Z,99988.49
2018-05-27T03:53:00.750Z,99983.54
2018-05-27T03:54:35.877Z,99986.88
2018-05-27T03:56:10.933Z,99983.69
2018-05-27T03:57:46.015Z,99993.94
2018-05-27T03:59:21.099Z,99993.37
2018-05-27T04:00:56.968Z,99997.55
2018-05-27T04:02:32.031Z,100002.06
2018-05-27T04:04:24.749Z,99998.14
2018-05-27T04:06:17.558Z,100002.41
2018-05-27T04:08:10.398Z,99997.67
2018-05-27T04:09:45.470Z,99999.16
2018-05-27T04:11:20.549Z,100000.22
2018-05-27T04:12:56.466Z,99997.98
2018-05-27T04:14:31.628Z,99999.06
2018-05-27T04:16:06.744Z,100000.72
2018-05-27T04:17:41.868Z,100001.08
2018-05-27T04:19:16.933Z,99997.31
2018-05-27T04:20:52.013Z,99995.30
2018-05-27T04:22:27.063Z,99997.27
2018-05-27T04:24:02.150Z,99997.59
2018-05-27T04:25:37.283Z,100001.89
2018-05-27T04:27:12.340Z,100005.67
2018-05-27T04:28:47.450Z,100007.89
2018-05-27T04:30:22.528Z,100008.47
2018-05-27T04:31:58.375Z,100011.09
2018-05-27T04:33:34.232Z,100005.82
2018-05-27T04:35:10.109Z,100010.75
2018-05-27T04:36:45.211Z,100012.95
2018-05-27T04:38:20.298Z,100006.33
2018-05-27T04:39:55.410Z,100007.39
2018-05-27T04:41:30.484Z,100007.59
2018-05-27T04:43:05.569Z,100009.16
2018-05-27T04:44:40.671Z,100009.42
2018-05-27T04:46:15.784Z,100016.37
2018-05-27T04:47:50.886Z,100010.69
2018-05-27T04:49:25.963Z,100010.14
2018-05-27T04:51:01.068Z,100012.56
2018-05-27T04:52:36.187Z,100011.72
2018-05-27T04:54:11.268Z,100010.25
2018-05-27T04:55:46.350Z,100013.41
2018-05-27T04:57:21.437Z,100013.89
2018-05-27T04:58:56.556Z,100015.59
2018-05-27T05:00:31.655Z,100009.06
2018-05-27T05:02:06.731Z,100009.00
2018-05-27T05:03:41.851Z,100004.33
2018-05-27T05:05:16.920Z,100006.14
2018-05-27T05:06:52.022Z,100008.38
2018-05-27T05:08:27.129Z,100017.75
2018-05-27T05:10:02.211Z,100014.95
2018-05-27T05:11:37.295Z,100017.26
2018-05-27T05:13:13.168Z,100013.91
2018-05-27T05:14:48.272Z,100018.11
2018-05-27T05:16:23.399Z,100016.30
2018-05-27T05:17:59.331Z,100017.11
2018-05-27T05:19:34.416Z,100020.72
2018-05-27T05:21:09.487Z,100023.89
2018-05-27T05:22:44.578Z,100022.56
2018-05-27T05:24:20.795Z,100027.78
2018-05-27T05:25:55.859Z,100028.09
2018-05-27T05:27:31.705Z,100025.80
2018-05-27T05:29:07.594Z,100021.52
2018-05-27T05:30:42.664Z,100022.36
2018-05-27T05:32:17.748Z,100022.77
2018-05-27T05:33:52.845Z,100024.88
2018-05-27T05:35:28.158Z,100026.48
2018-05-27T05:37:03.258Z,100028.73
2018-05-27T05:38:38.362Z,100031.11
2018-05-27T05:40:13.482Z,100023.63
2018-05-27T05:41:48.626Z,100029.63
2018-05-27T05:43:23.693Z,100031.66
2018-05-27T05:44:59.605Z,100032.08
2018-05-27T05:46:34.677Z,100028.94
2018-05-27T05:48:09.775Z,100034.58
2018-05-27T05:49:44.882Z,100037.23
2018-05-27T05:51:19.992Z,100030.32
2018-05-27T05:52:55.089Z,100037.39
2018-05-27T05:54:30.198Z,100035.47
2018-05-27T05:56:05.329Z,100045.39
2018-05-27T05:57:40.478Z,100042.38
2018-05-27T05:59:15.694Z,100046.30
2018-05-27T06:00:52.001Z,100048.95
2018-05-27T06:02:27.885Z,100048.76
2018-05-27T06:04:02.987Z,100050.81
2018-05-27T06:05:38.114Z,100057.34
2018-05-27T06:07:13.262Z,100062.71
2018-05-27T06:08:48.362Z,100061.48
2018-05-27T06:10:23.483Z,100059.05
2018-05-27T06:11:59.365Z,100054.80
2018-05-27T06:13:35.044Z,100052.56
2018-05-27T06:15:10.093Z,100059.52
2018-05-27T06:16:45.951Z,100056.23
2018-05-27T06:18:21.088Z,100060.84
2018-05-27T06:19:56.184Z,100059.89
2018-05-27T06:21:31.272Z,100060.70
2018-05-27T06:23:06.413Z,100063.67
2018-05-27T06:24:41.486Z,100061.34
2018-05-27T06:26:16.788Z,100066.96
2018-05-27T06:27:51.903Z,100062.61
2018-05-27T06:29:26.994Z,100063.25
2018-05-27T06:31:02.863Z,100062.66
2018-05-27T06:32:38.015Z,100067.75
2018-05-27T06:34:13.089Z,100064.98
2018-05-27T06:35:48.948Z,100067.13
2018-05-27T06:37:24.862Z,100068.38
2018-05-27T06:39:00.003Z,100064.39
2018-05-27T06:40:35.087Z,100068.38
2018-05-27T06:42:10.195Z,100062.91
2018-05-27T06:43:45.430Z,100062.01
2018-05-27T06:45:20.558Z,100064.72
2018-05-27T06:46:55.855Z,100066.79
2018-05-27T06:48:30.940Z,100070.72
2018-05-27T06:50:06.087Z,100064.21
2018-05-27T06:51:41.275Z,100064.84
2018-05-27T06:53:16.667Z,100061.00
2018-05-27T06:54:51.801Z,100061.96
2018-05-27T06:56:28.124Z,100052.43
2018-05-27T07:02:40.017Z,100058.08
2018-05-27T07:04:15.149Z,100057.81
2018-05-27T07:05:51.202Z,100061.86
2018-05-27T07:07:26.333Z,100069.83
2018-05-27T07:09:02.565Z,100069.32
2018-05-27T07:10:40.195Z,100076.11
2018-05-27T07:12:20.680Z,100075.61
2018-05-27T07:14:01.728Z,100080.77
2018-05-27T07:15:41.974Z,100085.72
2018-05-27T07:17:19.631Z,100078.79
2018-05-27T07:19:12.798Z,100083.53
2018-05-27T07:20:47.908Z,100086.01
2018-05-27T07:22:23.105Z,100076.89
2018-05-27T07:23:58.182Z,100080.83
2018-05-27T07:25:33.305Z,100076.33
2018-05-27T07:27:09.232Z,100081.98
2018-05-27T07:28:44.483Z,100076.18
2018-05-27T07:30:19.617Z,100075.08
2018-05-27T07:31:57.329Z,100079.45
2018-05-27T07:33:32.491Z,100079.42
2018-05-27T07:35:07.700Z,100082.58
2018-05-27T07:36:44.605Z,100077.97
2018-05-27T07:38:20.527Z,100078.69
2018-05-27T07:39:55.850Z,100059.73
2018-05-27T07:46:09.784Z,100081.16
2018-05-27T07:47:45.571Z,100071.08
2018-05-27T07:49:20.678Z,100077.19
2018-05-27T07:50:56.615Z,100077.44
2018-05-27T07:52:31.799Z,100075.52
2018-05-27T07:54:07.657Z,100082.39
2018-05-27T07:55:43.590Z,100081.55
2018-05-27T07:57:42.272Z,100082.88
2018-05-27T07:59:17.463Z,100077.34
2018-05-27T08:00:52.580Z,100064.31
2018-05-27T08:02:27.684Z,100081.72
2018-05-27T08:04:03.694Z,100080.62
2018-05-27T08:05:38.788Z,100084.87
2018-05-27T08:07:14.389Z,100091.01
2018-05-27T08:08:49.589Z,100089.61
2018-05-27T08:10:26.193Z,100079.47
2018-05-27T08:12:01.558Z,100082.95
2018-05-27T08:13:36.685Z,100093.06
2018-05-27T08:15:11.976Z,100092.38
2018-05-27T08:16:47.937Z,100092.92
2018-05-27T08:18:23.081Z,100090.48
2018-05-27T08:19:58.370Z,100089.53
2018-05-27T08:21:33.540Z,100090.69
2018-05-27T08:23:09.232Z,100086.14
2018-05-27T08:24:44.417Z,100085.34
2018-05-27T08:26:19.775Z,100091.42
2018-05-27T08:27:54.968Z,100088.22
2018-05-27T08:29:30.110Z,100094.87
2018-05-27T08:31:05.651Z,100091.70
2018-05-27T08:32:40.842Z,100095.60
2018-05-27T08:34:16.074Z,100091.45
2018-05-27T08:35:51.866Z,100091.61
2018-05-27T08:37:27.766Z,100093.94
2018-05-27T08:39:06.560Z,100087.03
2018-05-27T08:40:41.752Z,100091.20
2018-05-27T08:42:16.901Z,100087.41
2018-05-27T08:43:52.115Z,100089.22
2018-05-27T08:45:27.203Z,100090.77
2018-05-27T08:47:02.392Z,100089.88
2018-05-27T08:48:39.616Z,100088.98
2018-05-27T08:50:16.132Z,100092.58
2018-05-27T08:51:52.923Z,100087.64
2018-05-27T08:53:29.645Z,100091.31
2018-05-27T08:55:05.499Z,100097.81
2018-05-27T08:56:41.421Z,100090.84
2018-05-27T08:58:16.646Z,100088.43
2018-05-27T08:59:51.953Z,100091.51
2018-05-27T09:01:27.214Z,100087.67
2018-05-27T09:03:02.657Z,100087.17
2018-05-27T09:04:37.828Z,100086.84
2018-05-27T09:06:13.003Z,100079.38
2018-05-27T09:07:48.177Z,100078.91
2018-05-27T09:09:24.532Z,100080.13
2018-05-27T09:11:00.585Z,100073.88
2018-05-27T09:12:35.769Z,100073.31
2018-05-27T09:14:11.616Z,100066.27
2018-05-27T09:15:47.987Z,100068.58
2018-05-27T09:17:23.111Z,100069.39
2018-05-27T09:18:58.278Z,100068.98
2018-05-27T09:20:34.561Z,100061.90
2018-05-27T09:22:09.813Z,100055.16
2018-05-27T09:23:47.420Z,100060.52
2018-05-27T09:25:23.476Z,100059.88
2018-05-27T09:26:59.596Z,100059.86
2018-05-27T09:28:35.111Z,100052.33
2018-05-27T09:30:13.753Z,100059.92
2018-05-27T09:31:49.907Z,100054.53
2018-05-27T09:33:25.986Z,100063.27
2018-05-27T09:35:02.274Z,100060.83
2018-05-27T09:36:37.735Z,100057.87
2018-05-27T09:38:13.129Z,100051.52
2018-05-27T09:39:48.349Z,100047.43
2018-05-27T09:41:24.078Z,100052.56
2018-05-27T09:43:00.038Z,100049.48
2018-05-27T09:44:35.259Z,100047.45
2018-05-27T09:46:11.205Z,100041.12
2018-05-27T09:47:46.377Z,100047.50
2018-05-27T09:49:21.602Z,100043.37
2018-05-27T09:50:56.811Z,100049.27
2018-05-27T09:52:32.084Z,100043.13
2018-05-27T09:54:08.057Z,100044.05
2018-05-27T09:55:43.935Z,100041.25
2018-05-27T09:57:19.719Z,100045.09
2018-05-27T09:58:54.970Z,100040.61
2018-05-27T10:00:30.245Z,100038.05
2018-05-27T10:02:06.459Z,100038.47
2018-05-27T10:03:46.944Z,100035.45
2018-05-27T10:05:22.837Z,100030.47
2018-05-27T10:06:58.011Z,100032.27
2018-05-27T10:08:34.045Z,100034.76
2018-05-27T10:10:10.352Z,100026.98
2018-05-27T10:11:45.598Z,100029.02
2018-05-27T10:13:21.463Z,100027.89
2018-05-27T10:14:57.330Z,100024.58
2018-05-27T10:16:33.181Z,100028.38
2018-05-27T10:18:18.791Z,100022.47
2018-05-27T10:19:54.740Z,100028.05
2018-05-27T10:21:30.620Z,100022.11
2018-05-27T10:23:07.775Z,100023.73
2018-05-27T10:24:42.965Z,100030.34
2018-05-27T10:26:18.157Z,100015.75
2018-05-27T10:27:54.977Z,100010.67
2018-05-27T10:29:30.921Z,100015.65
2018-05-27T10:31:07.591Z,100011.48
2018-05-27T10:32:43.555Z,100011.98
2018-05-27T10:34:18.698Z,100009.22
2018-05-27T10:35:54.679Z,100008.67
2018-05-27T10:37:31.269Z,100002.17
2018-05-27T10:39:06.518Z,100008.38
2018-05-27T10:40:41.834Z,100004.22
2018-05-27T10:42:17.100Z,100006.75
2018-05-27T10:43:53.594Z,100009.86
2018-05-27T10:45:29.632Z,100003.17
2018-05-27T10:47:05.921Z,100005.53
2018-05-27T10:48:41.139Z,99999.88
2018-05-27T10:50:16.930Z,100003.63
2018-05-27T10:51:52.154Z,100006.47
2018-05-27T10:53:27.524Z,100005.34
2018-05-27T10:55:03.579Z,100002.65
2018-05-27T10:56:38.860Z,99990.48
2018-05-27T10:58:14.520Z,99992.37
2018-05-27T10:59:49.606Z,99998.55
2018-05-27T11:01:24.706Z,99993.09
2018-05-27T11:02:59.776Z,99992.95
2018-05-27T11:04:34.888Z,99985.45
2018-05-27T11:06:09.968Z,99984.44
2018-05-27T11:07:45.046Z,99993.83
2018-05-27T11:09:20.119Z,99987.47
2018-05-27T11:10:55.214Z,99988.51
2018-05-27T11:12:31.124Z,99986.95
2018-05-27T11:14:06.199Z,99986.85
2018-05-27T11:15:41.327Z,99980.98
2018-05-27T11:17:16.419Z,99978.74
2018-05-27T11:18:51.511Z,99982.62
2018-05-27T11:20:26.612Z,99967.16
2018-05-27T11:22:01.681Z,99973.56
2018-05-27T11:23:36.755Z,99968.43
2018-05-27T11:25:11.855Z,99969.95
2018-05-27T11:26:46.930Z,99973.03
2018-05-27T11:28:22.052Z,99963.39
2018-05-27T11:29:57.182Z,99960.20
2018-05-27T11:31:33.003Z,99964.23
2018-05-27T11:33:08.886Z,99955.08
2018-05-27T11:34:43.957Z,99949.69
2018-05-27T11:36:19.348Z,99953.09
2018-05-27T11:38:17.853Z,99952.92
2018-05-27T11:39:52.970Z,99949.43
2018-05-27T11:43:34.703Z,99948.04
2018-05-27T11:45:09.789Z,99942.50
2018-05-27T11:46:44.848Z,99942.42
2018-05-27T11:48:19.932Z,99945.29
2018-05-27T11:49:55.046Z,99939.37
2018-05-27T11:51:30.111Z,99937.92
2018-05-27T11:53:05.182Z,99933.34
2018-05-27T11:54:40.278Z,99931.27
2018-05-27T11:56:15.354Z,99924.55
2018-05-27T11:57:50.440Z,99921.59
2018-05-27T11:59:25.504Z,99926.81
2018-05-27T12:01:00.625Z,99920.95
2018-05-27T12:02:36.461Z,99916.50
2018-05-27T12:04:11.524Z,99915.34
2018-05-27T12:05:46.612Z,99911.32
2018-05-27T12:07:21.729Z,99909.23
2018-05-27T12:08:56.799Z,99898.41
2018-05-27T12:10:32.692Z,99895.30
2018-05-27T12:12:07.759Z,99894.95
2018-05-27T12:13:42.828Z,99896.73
2018-05-27T12:15:17.922Z,99890.78
2018-05-27T12:16:53.016Z,99888.57
2018-05-27T12:18:28.113Z,99884.88
2018-05-27T12:20:03.221Z,99881.27
2018-05-27T12:21:38.310Z,99890.58
2018-05-27T12:23:13.417Z,99888.90
2018-05-27T12:24:48.506Z,99893.67
2018-05-27T12:26:24.357Z,99887.59
2018-05-27T12:27:59.430Z,99884.07
2018-05-27T12:29:34.519Z,99890.46
2018-05-27T12:31:10.380Z,99885.81
2018-05-27T12:32:45.460Z,99874.91
2018-05-27T12:34:20.527Z,99872.54
2018-05-27T12:35:56.385Z,99867.49
2018-05-27T12:37:31.463Z,99864.25
2018-05-27T12:39:06.530Z,99870.31
2018-05-27T12:40:42.539Z,99866.94
2018-05-27T12:42:17.828Z,99875.31
2018-05-27T12:43:53.111Z,99879.77
2018-05-27T12:45:28.207Z,99882.84
2018-05-27T12:47:03.335Z,99883.72
2018-05-27T12:48:38.415Z,99891.38
2018-05-27T12:50:14.257Z,99889.40
2018-05-27T12:51:49.550Z,99891.91
2018-05-27T12:53:24.879Z,99897.55
2018-05-27T12:54:59.955Z,99900.45
2018-05-27T12:56:35.844Z,99893.34
2018-05-27T12:58:11.189Z,99884.14
2018-05-27T12:59:46.399Z,99886.32
2018-05-27T13:01:21.723Z,99880.56
2018-05-27T13:02:57.167Z,99879.59
2018-05-27T13:04:32.244Z,99880.43
2018-05-27T13:06:07.383Z,99877.44
2018-05-27T13:07:42.497Z,99875.00
2018-05-27T13:09:17.628Z,99875.52
2018-05-27T13:10:52.715Z,99867.86
2018-05-27T13:12:28.583Z,99862.73
2018-05-27T13:14:03.677Z,99859.16
2018-05-27T13:15:42.295Z,99858.97
2018-05-27T13:17:17.810Z,99851.83
2018-05-27T13:18:53.616Z,99851.17
2018-05-27T13:20:29.518Z,99856.17
2018-05-27T13:22:04.748Z,99850.39
2018-05-27T13:23:39.869Z,99868.13
2018-05-27T13:25:15.717Z,99867.36
2018-05-27T13:26:50.817Z,99874.44
2018-05-27T13:28:25.920Z,99872.17
2018-05-27T13:30:01.029Z,99874.58
2018-05-27T13:31:36.053Z,99877.13
2018-05-27T13:33:11.939Z,99873.30
2018-05-27T13:34:47.024Z,99866.81
2018-05-27T13:36:22.450Z,99871.00
2018-05-27T13:37:58.395Z,99859.31
2018-05-27T13:39:33.507Z,99853.97
2018-05-27T13:41:08.611Z,99851.86
2018-05-27T13:42:43.678Z,99840.30
2018-05-27T13:44:18.921Z,99846.69
2018-05-27T13:45:54.134Z,99844.42
2018-05-27T13:47:29.232Z,99839.63
2018-05-27T13:49:04.302Z,99835.31
2018-05-27T13:50:39.357Z,99828.55
2018-05-27T13:52:14.756Z,99818.33
2018-05-27T13:53:49.826Z,99821.19
2018-05-27T13:55:24.948Z,99823.06
2018-05-27T13:56:59.975Z,99834.63
2018-05-27T13:58:35.836Z,99836.62
2018-05-27T14:00:11.007Z,99838.50
2018-05-27T14:01:46.945Z,99837.84
2018-05-27T14:03:22.343Z,99846.02
2018-05-27T14:05:00.463Z,99848.83
2018-05-27T14:06:35.612Z,99851.22
2018-05-27T14:08:10.695Z,99853.83
2018-05-27T14:09:45.817Z,99858.55
2018-05-27T14:11:21.838Z,99860.52
2018-05-27T14:12:57.326Z,99860.91
2018-05-27T14:14:32.545Z,99865.45
2018-05-27T14:16:08.132Z,99866.88
2018-05-27T14:17:44.337Z,99865.54
2018-05-27T14:19:19.934Z,99870.54
2018-05-27T14:20:56.193Z,99872.30
2018-05-27T14:22:33.249Z,99866.73
2018-05-27T14:24:08.366Z,99871.30
2018-05-27T14:25:43.497Z,99871.53
2018-05-27T14:27:19.319Z,99864.14
2018-05-27T14:28:54.521Z,99869.86
2018-05-27T14:30:29.588Z,99862.27
2018-05-27T14:32:04.661Z,99864.00
2018-05-27T14:33:39.786Z,99877.45
2018-05-27T14:35:14.855Z,99874.34
2018-05-27T14:36:49.910Z,99877.16
2018-05-27T14:38:25.138Z,99887.95
2018-05-27T14:40:00.971Z,99891.06
2018-05-27T14:41:36.032Z,99901.63
2018-05-27T14:43:11.132Z,99907.27
2018-05-27T14:44:47.295Z,99923.95
2018-05-27T14:46:22.392Z,99936.39
2018-05-27T14:47:57.455Z,99924.81
2018-05-27T14:49:32.680Z,99921.50
2018-05-27T14:51:07.765Z,99918.78
2018-05-27T14:52:42.946Z,99923.03
2018-05-27T14:54:18.150Z,99919.42
2018-05-27T14:55:53.254Z,99909.98
2018-05-27T14:57:28.438Z,99914.45
2018-05-27T14:59:03.526Z,99915.63
2018-05-27T15:00:38.665Z,99914.44
2018-05-27T15:02:13.753Z,99903.13
2018-05-27T15:03:49.640Z,99918.31
2018-05-27T15:05:24.764Z,99913.10
2018-05-27T15:06:59.861Z,99918.50
2018-05-27T15:08:34.933Z,99918.53
2018-05-27T15:10:10.014Z,99912.92
2018-05-27T15:11:45.173Z,99914.94
2018-05-27T15:13:20.263Z,99918.25
2018-05-27T15:14:55.612Z,99916.66
2018-05-27T15:16:30.677Z,99914.57
2018-05-27T15:18:05.793Z,99913.59
2018-05-27T15:19:40.873Z,99901.06
2018-05-27T15:21:15.994Z,99894.52
2018-05-27T15:22:51.859Z,99883.58
2018-05-27T15:24:26.989Z,99876.05
2018-05-27T15:26:02.158Z,99876.74
2018-05-27T15:27:37.278Z,99869.95
2018-05-27T15:29:12.476Z,99875.06
2018-05-27T15:30:51.671Z,99867.59
2018-05-27T15:32:26.881Z,99872.33
2018-05-27T15:34:01.993Z,99871.09
2018-05-27T15:35:37.129Z,99873.98
2018-05-27T15:37:12.283Z,99868.77
2018-05-27T15:38:47.384Z,99869.82
2018-05-27T15:40:22.501Z,99873.66
2018-05-27T15:41:57.667Z,99867.38
2018-05-27T15:43:32.827Z,99873.01
2018-05-27T15:45:08.755Z,99869.73
2018-05-27T15:46:44.675Z,99865.70
2018-05-27T15:48:19.928Z,99862.22
2018-05-27T15:49:55.139Z,99864.15
2018-05-27T15:51:31.130Z,99864.52
2018-05-27T15:53:07.192Z,99861.20
2018-05-27T15:54:42.758Z,99855.03
2018-05-27T15:56:18.045Z,99850.11
2018-05-27T15:57:53.149Z,99847.63
2018-05-27T15:59:28.234Z,99850.94
2018-05-27T16:01:03.350Z,99846.66
2018-05-27T16:02:38.495Z,99844.25
2018-05-27T16:04:13.612Z,99841.62
2018-05-27T16:05:49.681Z,99844.64
2018-05-27T16:07:24.763Z,99837.11
2018-05-27T16:08:59.877Z,99838.30
2018-05-27T16:10:35.014Z,99844.77
2018-05-27T16:12:10.320Z,99846.84
2018-05-27T16:13:45.603Z,99849.89
2018-05-27T16:15:20.676Z,99849.47
2018-05-27T16:16:56.084Z,99850.30
2018-05-27T16:18:31.213Z,99845.31
2018-05-27T16:20:07.096Z,99848.55
2018-05-27T16:21:42.271Z,99853.45
2018-05-27T16:23:17.520Z,99853.04
2018-05-27T16:24:52.724Z,99851.83
2018-05-27T16:26:27.841Z,99853.59
2018-05-27T16:28:03.062Z,99853.19
2018-05-27T16:29:38.170Z,99850.81
2018-05-27T16:31:13.360Z,99853.91
2018-05-27T16:32:48.439Z,99851.73
2018-05-27T16:34:23.570Z,99859.02
2018-05-27T16:35:58.807Z,99859.83
2018-05-27T16:37:33.865Z,99852.32
2018-05-27T16:39:08.963Z,99855.84
2018-05-27T16:40:44.077Z,99860.16
2018-05-27T16:42:19.111Z,99859.48
2018-05-27T16:43:54.222Z,99859.42
2018-05-27T16:45:30.045Z,99856.78
2018-05-27T16:47:05.130Z,99853.09
2018-05-27T16:48:40.210Z,99849.61
2018-05-27T16:50:16.049Z,99853.27
2018-05-27T16:51:51.171Z,99843.14
2018-05-27T16:53:26.260Z,99848.05
2018-05-27T16:55:01.347Z,99838.85
2018-05-27T16:56:37.218Z,99850.39
2018-05-27T16:58:13.097Z,99847.50
2018-05-27T16:59:48.190Z,99839.15
2018-05-27T17:01:23.303Z,99840.66
2018-05-27T17:02:59.219Z,99835.16
2018-05-27T17:04:34.386Z,99835.92
2018-05-27T17:06:10.365Z,99831.43
2018-05-27T17:07:45.528Z,99830.59
2018-05-27T17:09:20.654Z,99834.34
2018-05-27T17:10:55.772Z,99830.04
2018-05-27T17:12:30.898Z,99821.86
2018-05-27T17:14:07.085Z,99828.44
2018-05-27T17:15:42.240Z,99819.58
2018-05-27T17:17:18.106Z,99821.15
2018-05-27T17:18:53.223Z,99817.09
2018-05-27T17:20:28.318Z,99814.92
2018-05-27T17:22:03.481Z,99818.45
2018-05-27T17:23:38.592Z,99812.52
2018-05-27T17:25:13.712Z,99816.45
2018-05-27T17:26:48.864Z,99819.91
2018-05-27T17:28:24.753Z,99819.24
2018-05-27T17:30:00.477Z,99823.13
2018-05-27T17:31:35.984Z,99823.17
2018-05-27T17:33:12.023Z,99817.19
2018-05-27T17:34:47.122Z,99817.13
2018-05-27T17:36:23.102Z,99819.83
2018-05-27T17:37:59.177Z,99819.09
2018-05-27T17:39:34.505Z,99821.66
2018-05-27T17:41:09.671Z,99827.16
2018-05-27T17:42:44.788Z,99830.27
2018-05-27T17:44:19.920Z,99832.16
2018-05-27T17:45:55.099Z,99826.37
2018-05-27T17:47:30.255Z,99819.91
2018-05-27T17:49:05.410Z,99823.55
2018-05-27T17:50:40.564Z,99827.55
2018-05-27T17:52:15.756Z,99827.80
2018-05-27T17:53:51.131Z,99824.17
2018-05-27T17:55:26.619Z,99825.17
2018-05-27T17:57:01.723Z,99827.92
2018-05-27T17:58:38.452Z,99828.27
2018-05-27T18:00:14.223Z,99817.10
2018-05-27T18:01:51.438Z,99815.95
2018-05-27T18:03:27.659Z,99817.83
2018-05-27T18:05:11.963Z,99818.83
2018-05-27T18:06:49.003Z,99822.81
2018-05-27T18:08:29.489Z,99825.72
2018-05-27T18:10:16.069Z,99829.38
2018-05-27T18:12:03.282Z,99830.74
2018-05-27T18:13:42.864Z,99834.78
2018-05-27T18:15:18.872Z,99838.45
2018-05-27T18:17:02.935Z,99837.95
2018-05-27T18:18:38.621Z,99846.81
2018-05-27T18:20:15.053Z,99850.77
2018-05-27T18:21:50.253Z,99851.16
2018-05-27T18:23:25.499Z,99847.42
2018-05-27T18:25:00.985Z,99847.92
2018-05-27T18:26:36.275Z,99848.86
2018-05-27T18:28:11.503Z,99850.86
2018-05-27T18:29:46.752Z,99848.09
2018-05-27T18:31:28.586Z,99850.38
2018-05-27T18:33:24.435Z,99844.20
2018-05-27T18:34:59.611Z,99842.13
2018-05-27T18:36:35.647Z,99835.88
2018-05-27T18:38:17.761Z,99840.27